Hub


Voltar

 INFORMAÇÕES METEOROLÓGICAS

METAR FOR PASO


ADDS - METARS form results

(2006 UTC 18 August 2019)
Data provider http://aviationweather.gov/metar/data/
 
METAR text: PASO 181953Z AUTO VRB05KT 10SM CLR 16/06 A3004 RMK AO2 SLP173 T01610056 TSNO
Conditions at: PASO (SELDOVIA , AK, US) observed 1953 UTC 18 August 2019
Temperature: 16.1°C (61°F)
Dewpoint: 5.6°C (42°F) [RH = 50%]
Pressure (altimeter): 30.04 inches Hg (1017.4 mb)
[Sea-level pressure: 1017.3 mb]
Winds: variable direction winds at 6 MPH (5 knots; 2.6 m/s)
Visibility: 10 or more miles (16+ km)
Ceiling: at least 12,000 feet AGL
Clouds: sky clear below 12,000 feet AGL
Weather: automated observation with no human augmentation;
there may or may not be significant weather present at this time


 MAPA DO AEROPORTO


 INFORMAÇÕES DA PISTA

Pista 16 Tamanho da pista 1845 ft Largura da pista 60 ft
Elevação da pista 0 ft Ranhura da pista 0 ft Proa da pista 0
Pista 34 Tamanho da pista 1845 ft Largura da pista 60 ft
Elevação da pista 0 ft Ranhura da pista 0 ft Proa da pista 0

 FREQUÊNCIAS DO AEROPORTO


 AUXÍLIOS DE NAVEGAÇÃO PRÓXIMOS AO AEROPORTO